sensor_id;sensor_type;location;lat;lon;timestamp;pressure;altitude;pressure_sealevel;temperature;humidity
65173;BME280;69059;52.218;5.172;2023-04-27T00:00:44;100838.47;;;4.00;100.00
65173;BME280;69059;52.218;5.172;2023-04-27T00:03:12;100834.38;;;3.97;100.00
65173;BME280;69059;52.218;5.172;2023-04-27T00:05:40;100828.97;;;3.90;100.00
65173;BME280;69059;52.218;5.172;2023-04-27T00:08:09;100864.81;;;3.93;100.00
65173;BME280;69059;52.218;5.172;2023-04-27T00:10:37;100891.06;;;3.89;100.00
65173;BME280;69059;52.218;5.172;2023-04-27T00:13:05;100892.84;;;3.88;100.00
65173;BME280;69059;52.218;5.172;2023-04-27T00:15:33;100884.53;;;3.85;100.00
65173;BME280;69059;52.218;5.172;2023-04-27T00:18:00;100897.06;;;3.80;100.00
65173;BME280;69059;52.218;5.172;2023-04-27T00:20:28;100886.56;;;3.81;100.00
65173;BME280;69059;52.218;5.172;2023-04-27T00:22:56;100883.31;;;3.79;100.00
65173;BME280;69059;52.218;5.172;2023-04-27T00:25:25;100886.84;;;3.78;100.00
65173;BME280;69059;52.218;5.172;2023-04-27T00:27:53;100888.75;;;3.76;100.00
65173;BME280;69059;52.218;5.172;2023-04-27T00:30:21;100880.19;;;3.76;100.00
65173;BME280;69059;52.218;5.172;2023-04-27T00:32:48;100875.94;;;3.65;100.00
65173;BME280;69059;52.218;5.172;2023-04-27T00:35:16;100869.28;;;3.63;100.00
65173;BME280;69059;52.218;5.172;2023-04-27T00:37:44;100858.94;;;3.53;100.00
65173;BME280;69059;52.218;5.172;2023-04-27T00:40:12;100850.78;;;3.57;100.00
65173;BME280;69059;52.218;5.172;2023-04-27T00:42:41;100844.91;;;3.55;100.00
65173;BME280;69059;52.218;5.172;2023-04-27T00:45:10;100849.00;;;3.58;100.00
65173;BME280;69059;52.218;5.172;2023-04-27T00:47:38;100843.72;;;3.59;100.00
65173;BME280;69059;52.218;5.172;2023-04-27T00:50:07;100849.00;;;3.58;100.00
65173;BME280;69059;52.218;5.172;2023-04-27T00:52:36;100846.56;;;3.56;100.00
65173;BME280;69059;52.218;5.172;2023-04-27T00:55:04;100852.81;;;3.54;100.00
65173;BME280;69059;52.218;5.172;2023-04-27T00:57:33;100842.44;;;3.44;100.00
65173;BME280;69059;52.218;5.172;2023-04-27T01:00:03;100841.25;;;3.48;100.00
65173;BME280;69059;52.218;5.172;2023-04-27T01:02:32;100843.81;;;3.48;100.00
65173;BME280;69059;52.218;5.172;2023-04-27T01:05:00;100838.91;;;3.36;100.00
65173;BME280;69059;52.218;5.172;2023-04-27T01:07:28;100821.31;;;3.20;100.00
65173;BME280;69059;52.218;5.172;2023-04-27T01:09:56;100827.88;;;3.34;100.00
65173;BME280;69059;52.218;5.172;2023-04-27T01:12:24;100824.94;;;3.38;100.00
65173;BME280;69059;52.218;5.172;2023-04-27T01:14:51;100836.56;;;3.33;100.00
65173;BME280;69059;52.218;5.172;2023-04-27T01:17:20;100830.69;;;3.21;100.00
65173;BME280;69059;52.218;5.172;2023-04-27T01:19:48;100823.22;;;3.18;100.00
65173;BME280;69059;52.218;5.172;2023-04-27T01:22:16;100819.88;;;3.37;100.00
65173;BME280;69059;52.218;5.172;2023-04-27T01:24:45;100824.63;;;3.32;100.00
65173;BME280;69059;52.218;5.172;2023-04-27T01:27:13;100823.13;;;3.29;100.00
65173;BME280;69059;52.218;5.172;2023-04-27T01:29:41;100820.00;;;3.26;100.00
65173;BME280;69059;52.218;5.172;2023-04-27T01:32:09;100820.25;;;3.22;100.00
65173;BME280;69059;52.218;5.172;2023-04-27T01:34:38;100814.66;;;3.17;100.00
65173;BME280;69059;52.218;5.172;2023-04-27T01:37:05;100828.78;;;3.13;100.00
65173;BME280;69059;52.218;5.172;2023-04-27T01:39:34;100820.59;;;3.08;100.00
65173;BME280;69059;52.218;5.172;2023-04-27T01:42:03;100818.03;;;3.08;100.00
65173;BME280;69059;52.218;5.172;2023-04-27T01:44:31;100804.97;;;3.00;100.00
65173;BME280;69059;52.218;5.172;2023-04-27T01:46:58;100801.44;;;3.01;100.00
65173;BME280;69059;52.218;5.172;2023-04-27T01:49:26;100791.38;;;2.98;100.00
65173;BME280;69059;52.218;5.172;2023-04-27T01:51:54;100790.69;;;2.96;100.00
65173;BME280;69059;52.218;5.172;2023-04-27T01:54:21;100781.03;;;2.88;100.00
65173;BME280;69059;52.218;5.172;2023-04-27T01:56:52;100775.59;;;2.92;100.00
65173;BME280;69059;52.218;5.172;2023-04-27T01:59:21;100777.94;;;2.95;100.00
65173;BME280;69059;52.218;5.172;2023-04-27T02:01:48;100777.09;;;2.94;100.00
65173;BME280;69059;52.218;5.172;2023-04-27T02:04:16;100775.88;;;2.88;100.00
65173;BME280;69059;52.218;5.172;2023-04-27T02:06:44;100781.41;;;2.84;100.00
65173;BME280;69059;52.218;5.172;2023-04-27T02:09:12;100773.53;;;2.76;100.00
65173;BME280;69059;52.218;5.172;2023-04-27T02:11:41;100758.06;;;2.76;100.00
65173;BME280;69059;52.218;5.172;2023-04-27T02:14:08;100761.22;;;2.59;100.00
65173;BME280;69059;52.218;5.172;2023-04-27T02:16:37;100758.91;;;2.56;100.00
65173;BME280;69059;52.218;5.172;2023-04-27T02:19:05;100740.34;;;2.62;100.00
65173;BME280;69059;52.218;5.172;2023-04-27T02:21:33;100741.28;;;2.61;100.00
65173;BME280;69059;52.218;5.172;2023-04-27T02:24:01;100735.75;;;2.65;100.00
65173;BME280;69059;52.218;5.172;2023-04-27T02:26:29;100735.06;;;2.63;100.00
65173;BME280;69059;52.218;5.172;2023-04-27T02:28:58;100734.50;;;2.60;100.00
65173;BME280;69059;52.218;5.172;2023-04-27T02:31:26;100725.97;;;2.59;100.00
65173;BME280;69059;52.218;5.172;2023-04-27T02:33:55;100717.25;;;2.50;100.00
65173;BME280;69059;52.218;5.172;2023-04-27T02:36:23;100722.94;;;2.54;100.00
65173;BME280;69059;52.218;5.172;2023-04-27T02:38:50;100721.72;;;2.48;100.00
65173;BME280;69059;52.218;5.172;2023-04-27T02:41:18;100717.19;;;2.41;100.00
65173;BME280;69059;52.218;5.172;2023-04-27T02:43:46;100715.69;;;2.38;100.00
65173;BME280;69059;52.218;5.172;2023-04-27T02:46:13;100704.69;;;2.36;100.00
65173;BME280;69059;52.218;5.172;2023-04-27T02:48:41;100712.56;;;2.35;100.00
65173;BME280;69059;52.218;5.172;2023-04-27T02:51:10;100714.31;;;2.34;100.00
65173;BME280;69059;52.218;5.172;2023-04-27T02:53:38;100711.97;;;2.31;100.00
65173;BME280;69059;52.218;5.172;2023-04-27T02:56:06;100711.94;;;2.22;100.00
65173;BME280;69059;52.218;5.172;2023-04-27T02:58:34;100716.72;;;2.26;100.00
65173;BME280;69059;52.218;5.172;2023-04-27T03:01:01;100720.25;;;2.25;100.00
65173;BME280;69059;52.218;5.172;2023-04-27T03:03:30;100682.53;;;2.03;100.00
65173;BME280;69059;52.218;5.172;2023-04-27T03:05:58;100721.47;;;2.31;100.00
65173;BME280;69059;52.218;5.172;2023-04-27T03:08:27;100733.66;;;2.29;100.00
65173;BME280;69059;52.218;5.172;2023-04-27T03:10:54;100743.28;;;2.27;100.00
65173;BME280;69059;52.218;5.172;2023-04-27T03:13:22;100746.00;;;2.25;100.00
65173;BME280;69059;52.218;5.172;2023-04-27T03:15:50;100756.03;;;2.28;100.00
65173;BME280;69059;52.218;5.172;2023-04-27T03:18:17;100756.19;;;2.27;100.00
65173;BME280;69059;52.218;5.172;2023-04-27T03:20:45;100713.03;;;1.98;100.00
65173;BME280;69059;52.218;5.172;2023-04-27T03:23:13;100758.06;;;2.25;100.00
65173;BME280;69059;52.218;5.172;2023-04-27T03:25:42;100763.47;;;2.22;100.00
65173;BME280;69059;52.218;5.172;2023-04-27T03:28:10;100761.25;;;2.17;100.00
65173;BME280;69059;52.218;5.172;2023-04-27T03:30:38;100764.53;;;2.19;100.00
65173;BME280;69059;52.218;5.172;2023-04-27T03:33:06;100764.75;;;2.16;100.00
65173;BME280;69059;52.218;5.172;2023-04-27T03:35:34;100757.56;;;2.10;100.00
65173;BME280;69059;52.218;5.172;2023-04-27T03:38:02;100763.16;;;2.15;100.00
65173;BME280;69059;52.218;5.172;2023-04-27T03:40:29;100759.59;;;2.16;100.00
65173;BME280;69059;52.218;5.172;2023-04-27T03:42:58;100760.13;;;2.10;100.00
65173;BME280;69059;52.218;5.172;2023-04-27T03:45:26;100767.84;;;2.10;100.00
65173;BME280;69059;52.218;5.172;2023-04-27T03:47:54;100765.41;;;2.08;100.00
65173;BME280;69059;52.218;5.172;2023-04-27T03:50:21;100761.75;;;2.11;100.00
65173;BME280;69059;52.218;5.172;2023-04-27T03:52:49;100756.41;;;2.03;100.00
65173;BME280;69059;52.218;5.172;2023-04-27T03:55:17;100760.13;;;2.10;100.00
65173;BME280;69059;52.218;5.172;2023-04-27T03:57:45;100766.47;;;2.06;100.00
65173;BME280;69059;52.218;5.172;2023-04-27T04:00:14;100762.25;;;2.05;100.00
65173;BME280;69059;52.218;5.172;2023-04-27T04:02:43;100764.81;;;2.05;100.00
65173;BME280;69059;52.218;5.172;2023-04-27T04:05:12;100769.16;;;2.04;100.00
65173;BME280;69059;52.218;5.172;2023-04-27T04:07:40;100768.50;;;2.02;100.00
65173;BME280;69059;52.218;5.172;2023-04-27T04:10:09;100763.47;;;2.01;100.00
65173;BME280;69059;52.218;5.172;2023-04-27T04:12:37;100764.53;;;1.98;100.00
65173;BME280;69059;52.218;5.172;2023-04-27T04:15:05;100765.47;;;1.97;100.00
65173;BME280;69059;52.218;5.172;2023-04-27T04:17:35;100775.19;;;1.94;100.00
65173;BME280;69059;52.218;5.172;2023-04-27T04:20:03;100770.72;;;1.96;100.00
65173;BME280;69059;52.218;5.172;2023-04-27T04:22:34;100776.00;;;1.94;100.00
65173;BME280;69059;52.218;5.172;2023-04-27T04:25:01;100778.69;;;1.93;100.00
65173;BME280;69059;52.218;5.172;2023-04-27T04:27:29;100775.41;;;1.91;100.00
65173;BME280;69059;52.218;5.172;2023-04-27T04:29:58;100780.44;;;1.92;100.00
65173;BME280;69059;52.218;5.172;2023-04-27T04:32:27;100777.06;;;1.92;100.00
65173;BME280;69059;52.218;5.172;2023-04-27T04:34:57;100777.06;;;1.92;100.00
65173;BME280;69059;52.218;5.172;2023-04-27T04:37:27;100766.56;;;1.84;100.00
65173;BME280;69059;52.218;5.172;2023-04-27T04:39:54;100776.00;;;1.94;100.00
65173;BME280;69059;52.218;5.172;2023-04-27T04:42:22;100778.69;;;1.93;100.00
65173;BME280;69059;52.218;5.172;2023-04-27T04:44:50;100774.06;;;1.87;100.00
65173;BME280;69059;52.218;5.172;2023-04-27T04:47:17;100778.69;;;1.93;100.00
65173;BME280;69059;52.218;5.172;2023-04-27T04:49:45;100786.50;;;2.02;100.00
65173;BME280;69059;52.218;5.172;2023-04-27T04:52:14;100783.56;;;2.07;100.00
65173;BME280;69059;52.218;5.172;2023-04-27T04:54:41;100782.59;;;2.08;100.00
65173;BME280;69059;52.218;5.172;2023-04-27T04:57:09;100777.09;;;2.12;100.00
65173;BME280;69059;52.218;5.172;2023-04-27T04:59:37;100778.59;;;2.15;100.00
65173;BME280;69059;52.218;5.172;2023-04-27T05:02:05;100774.81;;;2.19;100.00
65173;BME280;69059;52.218;5.172;2023-04-27T05:04:32;100777.28;;;2.21;100.00
65173;BME280;69059;52.218;5.172;2023-04-27T05:07:00;100772.56;;;2.26;100.00
65173;BME280;69059;52.218;5.172;2023-04-27T05:09:29;100770.53;;;2.29;100.00
65173;BME280;69059;52.218;5.172;2023-04-27T05:11:57;100765.72;;;2.36;100.00
65173;BME280;69059;52.218;5.172;2023-04-27T05:14:26;100761.13;;;2.39;100.00
65173;BME280;69059;52.218;5.172;2023-04-27T05:16:53;100750.56;;;2.42;100.00
65173;BME280;69059;52.218;5.172;2023-04-27T05:19:21;100763.09;;;2.57;100.00
65173;BME280;69059;52.218;5.172;2023-04-27T05:21:50;100761.78;;;2.62;100.00
65173;BME280;69059;52.218;5.172;2023-04-27T05:24:18;100761.38;;;2.67;100.00
65173;BME280;69059;52.218;5.172;2023-04-27T05:26:47;100765.09;;;2.74;100.00
65173;BME280;69059;52.218;5.172;2023-04-27T05:29:15;100763.75;;;2.79;100.00
65173;BME280;69059;52.218;5.172;2023-04-27T05:31:42;100753.75;;;2.86;100.00
65173;BME280;69059;52.218;5.172;2023-04-27T05:34:10;100754.03;;;2.93;100.00
65173;BME280;69059;52.218;5.172;2023-04-27T05:36:38;100716.00;;;2.85;100.00
65173;BME280;69059;52.218;5.172;2023-04-27T05:39:06;100753.03;;;3.14;100.00
65173;BME280;69059;52.218;5.172;2023-04-27T05:41:34;100748.31;;;3.29;100.00
65173;BME280;69059;52.218;5.172;2023-04-27T05:44:04;100745.19;;;3.35;100.00
65173;BME280;69059;52.218;5.172;2023-04-27T05:46:32;100738.81;;;3.39;100.00
65173;BME280;69059;52.218;5.172;2023-04-27T05:49:03;100739.34;;;3.43;100.00
65173;BME280;69059;52.218;5.172;2023-04-27T05:51:31;100742.34;;;3.48;100.00
65173;BME280;69059;52.218;5.172;2023-04-27T05:53:59;100732.44;;;3.63;100.00
65173;BME280;69059;52.218;5.172;2023-04-27T05:56:27;100714.78;;;3.77;100.00
65173;BME280;69059;52.218;5.172;2023-04-27T05:58:55;100710.53;;;3.86;100.00
65173;BME280;69059;52.218;5.172;2023-04-27T06:01:24;100704.56;;;4.05;100.00
65173;BME280;69059;52.218;5.172;2023-04-27T06:03:52;100710.66;;;4.04;100.00
65173;BME280;69059;52.218;5.172;2023-04-27T06:06:19;100706.44;;;4.12;100.00
65173;BME280;69059;52.218;5.172;2023-04-27T06:08:47;100711.69;;;4.30;100.00
65173;BME280;69059;52.218;5.172;2023-04-27T06:11:15;100709.44;;;4.54;100.00
65173;BME280;69059;52.218;5.172;2023-04-27T06:13:43;100704.91;;;4.66;100.00
65173;BME280;69059;52.218;5.172;2023-04-27T06:16:11;100703.25;;;4.65;100.00
65173;BME280;69059;52.218;5.172;2023-04-27T06:18:40;100721.22;;;4.66;100.00
65173;BME280;69059;52.218;5.172;2023-04-27T06:21:08;100726.69;;;4.91;100.00
65173;BME280;69059;52.218;5.172;2023-04-27T06:23:36;100733.84;;;5.07;100.00
65173;BME280;69059;52.218;5.172;2023-04-27T06:26:04;100740.59;;;5.17;100.00
65173;BME280;69059;52.218;5.172;2023-04-27T06:28:31;100745.31;;;5.22;100.00
65173;BME280;69059;52.218;5.172;2023-04-27T06:30:59;100751.16;;;5.24;100.00
65173;BME280;69059;52.218;5.172;2023-04-27T06:33:27;100752.22;;;5.49;100.00
65173;BME280;69059;52.218;5.172;2023-04-27T06:35:56;100755.94;;;5.64;100.00
65173;BME280;69059;52.218;5.172;2023-04-27T06:38:24;100774.94;;;5.55;100.00
65173;BME280;69059;52.218;5.172;2023-04-27T06:40:51;100787.53;;;5.67;100.00
65173;BME280;69059;52.218;5.172;2023-04-27T06:43:19;100820.44;;;5.57;100.00
65173;BME280;69059;52.218;5.172;2023-04-27T06:45:47;100818.75;;;5.93;100.00
65173;BME280;69059;52.218;5.172;2023-04-27T06:48:15;100799.84;;;6.01;100.00
65173;BME280;69059;52.218;5.172;2023-04-27T06:50:43;100823.53;;;6.24;100.00
65173;BME280;69059;52.218;5.172;2023-04-27T06:53:12;100865.22;;;6.13;100.00
65173;BME280;69059;52.218;5.172;2023-04-27T06:55:40;100879.00;;;6.31;100.00
65173;BME280;69059;52.218;5.172;2023-04-27T06:58:11;100876.72;;;6.71;100.00
65173;BME280;69059;52.218;5.172;2023-04-27T07:00:39;100938.34;;;6.52;100.00
65173;BME280;69059;52.218;5.172;2023-04-27T07:03:07;100916.22;;;7.09;100.00
65173;BME280;69059;52.218;5.172;2023-04-27T07:05:34;100965.13;;;6.96;100.00
65173;BME280;69059;52.218;5.172;2023-04-27T07:08:02;101023.06;;;6.78;100.00
65173;BME280;69059;52.218;5.172;2023-04-27T07:10:35;101014.97;;;7.25;100.00
65173;BME280;69059;52.218;5.172;2023-04-27T07:13:03;101061.63;;;7.35;100.00
65173;BME280;69059;52.218;5.172;2023-04-27T07:15:34;101105.19;;;7.41;100.00
65173;BME280;69059;52.218;5.172;2023-04-27T07:18:02;101146.66;;;7.50;100.00
65173;BME280;69059;52.218;5.172;2023-04-27T07:20:30;101200.19;;;7.43;100.00
65173;BME280;69059;52.218;5.172;2023-04-27T07:22:58;101219.06;;;7.45;100.00
65173;BME280;69059;52.218;5.172;2023-04-27T07:25:26;101212.91;;;7.90;100.00
65173;BME280;69059;52.218;5.172;2023-04-27T07:27:55;101205.50;;;8.47;100.00
65173;BME280;69059;52.218;5.172;2023-04-27T07:30:25;101204.34;;;8.83;100.00
65173;BME280;69059;52.218;5.172;2023-04-27T07:32:56;101245.88;;;8.93;100.00
65173;BME280;69059;52.218;5.172;2023-04-27T07:35:23;101343.09;;;8.50;100.00
65173;BME280;69059;52.218;5.172;2023-04-27T07:37:51;101338.38;;;8.71;100.00
65173;BME280;69059;52.218;5.172;2023-04-27T07:40:20;101367.19;;;8.78;100.00
65173;BME280;69059;52.218;5.172;2023-04-27T07:42:49;101372.56;;;8.76;100.00
65173;BME280;69059;52.218;5.172;2023-04-27T07:45:18;101359.75;;;9.17;100.00
65173;BME280;69059;52.218;5.172;2023-04-27T07:47:47;101363.50;;;9.48;100.00
65173;BME280;69059;52.218;5.172;2023-04-27T07:50:15;101352.34;;;9.96;100.00
65173;BME280;69059;52.218;5.172;2023-04-27T07:52:44;101487.16;;;9.02;100.00
65173;BME280;69059;52.218;5.172;2023-04-27T07:55:11;101499.44;;;8.92;100.00
65173;BME280;69059;52.218;5.172;2023-04-27T07:57:39;101484.28;;;9.39;100.00
65173;BME280;69059;52.218;5.172;2023-04-27T08:00:07;101497.44;;;9.63;100.00
65173;BME280;69059;52.218;5.172;2023-04-27T08:02:37;101462.19;;;10.60;100.00
65173;BME280;69059;52.218;5.172;2023-04-27T08:05:06;101542.19;;;11.01;100.00
65173;BME280;69059;52.218;5.172;2023-04-27T08:07:34;101608.44;;;10.68;100.00
65173;BME280;69059;52.218;5.172;2023-04-27T08:10:10;101651.03;;;10.26;100.00
65173;BME280;69059;52.218;5.172;2023-04-27T08:12:37;101607.50;;;10.93;100.00
65173;BME280;69059;52.218;5.172;2023-04-27T08:15:06;101637.25;;;11.49;100.00
65173;BME280;69059;52.218;5.172;2023-04-27T08:17:34;101656.88;;;11.61;100.00
65173;BME280;69059;52.218;5.172;2023-04-27T08:20:05;101697.91;;;10.36;100.00
65173;BME280;69059;52.218;5.172;2023-04-27T08:22:33;101715.13;;;10.03;100.00
65173;BME280;69059;52.218;5.172;2023-04-27T08:25:01;101639.28;;;9.70;100.00
65173;BME280;69059;52.218;5.172;2023-04-27T08:27:30;101690.78;;;9.94;100.00
65173;BME280;69059;52.218;5.172;2023-04-27T08:29:58;101680.19;;;9.96;100.00
65173;BME280;69059;52.218;5.172;2023-04-27T08:32:26;101669.66;;;10.31;100.00
65173;BME280;69059;52.218;5.172;2023-04-27T08:34:54;101703.47;;;10.75;100.00
65173;BME280;69059;52.218;5.172;2023-04-27T08:37:23;101734.53;;;10.86;100.00
65173;BME280;69059;52.218;5.172;2023-04-27T08:39:51;101747.00;;;10.66;100.00
65173;BME280;69059;52.218;5.172;2023-04-27T08:42:19;101749.31;;;10.77;100.00
65173;BME280;69059;52.218;5.172;2023-04-27T08:44:47;101728.28;;;10.45;100.00
65173;BME280;69059;52.218;5.172;2023-04-27T08:47:14;101752.75;;;10.18;100.00
65173;BME280;69059;52.218;5.172;2023-04-27T08:49:43;101740.94;;;11.00;100.00
65173;BME280;69059;52.218;5.172;2023-04-27T08:52:12;101683.66;;;11.96;100.00
65173;BME280;69059;52.218;5.172;2023-04-27T08:54:42;101780.81;;;11.76;100.00
65173;BME280;69059;52.218;5.172;2023-04-27T08:57:10;101777.38;;;11.76;100.00
65173;BME280;69059;52.218;5.172;2023-04-27T08:59:38;101839.00;;;11.78;100.00
65173;BME280;69059;52.218;5.172;2023-04-27T09:02:06;101876.03;;;12.00;100.00
65173;BME280;69059;52.218;5.172;2023-04-27T09:04:44;101861.44;;;11.89;100.00
65173;BME280;69059;52.218;5.172;2023-04-27T09:07:13;101865.97;;;13.32;100.00
65173;BME280;69059;52.218;5.172;2023-04-27T09:09:44;101920.50;;;13.83;100.00
65173;BME280;69059;52.218;5.172;2023-04-27T09:12:14;101949.44;;;14.52;100.00
65173;BME280;69059;52.218;5.172;2023-04-27T09:14:42;101919.78;;;15.69;100.00
65173;BME280;69059;52.218;5.172;2023-04-27T09:17:12;102000.47;;;16.12;100.00
65173;BME280;69059;52.218;5.172;2023-04-27T09:19:40;102009.59;;;16.53;100.00
65173;BME280;69059;52.218;5.172;2023-04-27T09:22:09;102014.94;;;16.80;99.78
65173;BME280;69059;52.218;5.172;2023-04-27T09:24:50;101975.56;;;14.91;100.00
65173;BME280;69059;52.218;5.172;2023-04-27T09:27:19;102012.28;;;14.99;100.00
65173;BME280;69059;52.218;5.172;2023-04-27T09:29:47;102023.47;;;14.78;95.44
65173;BME280;69059;52.218;5.172;2023-04-27T09:32:15;102020.56;;;14.50;97.97
65173;BME280;69059;52.218;5.172;2023-04-27T09:34:43;102004.69;;;15.48;100.00
65173;BME280;69059;52.218;5.172;2023-04-27T09:37:11;102014.44;;;16.13;100.00
65173;BME280;69059;52.218;5.172;2023-04-27T09:39:40;101984.22;;;16.73;100.00
65173;BME280;69059;52.218;5.172;2023-04-27T09:42:10;101974.50;;;17.36;100.00
65173;BME280;69059;52.218;5.172;2023-04-27T09:44:38;102022.22;;;14.89;100.00
65173;BME280;69059;52.218;5.172;2023-04-27T09:47:06;101987.88;;;15.57;100.00
65173;BME280;69059;52.218;5.172;2023-04-27T09:49:34;101988.50;;;16.53;100.00
65173;BME280;69059;52.218;5.172;2023-04-27T09:52:02;102010.00;;;16.35;94.23
65173;BME280;69059;52.218;5.172;2023-04-27T09:54:31;102023.78;;;14.98;89.30
65173;BME280;69059;52.218;5.172;2023-04-27T09:57:09;102014.63;;;15.61;95.65
65173;BME280;69059;52.218;5.172;2023-04-27T09:59:50;101998.34;;;15.72;100.00
65173;BME280;69059;52.218;5.172;2023-04-27T10:02:22;102008.78;;;16.52;92.86
65173;BME280;69059;52.218;5.172;2023-04-27T10:05:08;102002.09;;;16.71;97.56
65173;BME280;69059;52.218;5.172;2023-04-27T10:07:39;102005.22;;;16.02;100.00
65173;BME280;69059;52.218;5.172;2023-04-27T10:10:15;101993.19;;;16.15;100.00
65173;BME280;69059;52.218;5.172;2023-04-27T10:12:55;102010.72;;;16.43;96.58
65173;BME280;69059;52.218;5.172;2023-04-27T10:15:26;102027.53;;;15.56;77.05
65173;BME280;69059;52.218;5.172;2023-04-27T10:17:55;101991.00;;;15.23;100.00
65173;BME280;69059;52.218;5.172;2023-04-27T10:20:28;102000.50;;;16.55;100.00
65173;BME280;69059;52.218;5.172;2023-04-27T10:22:57;102016.81;;;16.44;86.33
65173;BME280;69059;52.218;5.172;2023-04-27T10:25:26;102003.22;;;16.47;100.00
65173;BME280;69059;52.218;5.172;2023-04-27T10:27:57;102004.59;;;16.22;95.90
65173;BME280;69059;52.218;5.172;2023-04-27T10:30:31;101966.75;;;16.65;100.00
65173;BME280;69059;52.218;5.172;2023-04-27T10:33:04;102023.69;;;15.73;80.81
65173;BME280;69059;52.218;5.172;2023-04-27T10:35:34;101999.19;;;14.76;100.00
65173;BME280;69059;52.218;5.172;2023-04-27T10:38:06;102008.84;;;16.01;90.98
65173;BME280;69059;52.218;5.172;2023-04-27T10:40:35;102001.69;;;15.95;100.00
65173;BME280;69059;52.218;5.172;2023-04-27T10:43:07;102012.19;;;14.69;97.06
65173;BME280;69059;52.218;5.172;2023-04-27T10:45:37;101973.31;;;16.33;100.00
65173;BME280;69059;52.218;5.172;2023-04-27T10:48:05;101997.03;;;16.55;100.00
65173;BME280;69059;52.218;5.172;2023-04-27T10:50:34;102010.28;;;15.01;100.00
65173;BME280;69059;52.218;5.172;2023-04-27T10:53:03;101994.09;;;16.64;100.00
65173;BME280;69059;52.218;5.172;2023-04-27T10:55:32;102013.47;;;15.99;94.06
65173;BME280;69059;52.218;5.172;2023-04-27T10:58:01;101989.69;;;16.50;100.00
65173;BME280;69059;52.218;5.172;2023-04-27T11:00:30;101989.94;;;18.41;100.00
65173;BME280;69059;52.218;5.172;2023-04-27T11:03:11;102012.72;;;19.14;77.05
65173;BME280;69059;52.218;5.172;2023-04-27T11:05:41;102008.88;;;18.90;88.52
65173;BME280;69059;52.218;5.172;2023-04-27T11:08:11;101999.28;;;19.22;70.47
65173;BME280;69059;52.218;5.172;2023-04-27T11:10:42;102000.97;;;18.84;72.35
65173;BME280;69059;52.218;5.172;2023-04-27T11:13:12;101982.44;;;15.95;83.74
65173;BME280;69059;52.218;5.172;2023-04-27T11:15:42;101992.47;;;15.70;93.19
65173;BME280;69059;52.218;5.172;2023-04-27T11:18:11;101981.19;;;15.91;94.66
65173;BME280;69059;52.218;5.172;2023-04-27T11:20:39;101957.16;;;15.79;96.11
65173;BME280;69059;52.218;5.172;2023-04-27T11:23:08;101967.94;;;17.25;100.00
65173;BME280;69059;52.218;5.172;2023-04-27T11:25:37;101983.84;;;16.76;72.25
65173;BME280;69059;52.218;5.172;2023-04-27T11:28:15;101972.59;;;18.25;89.47
65173;BME280;69059;52.218;5.172;2023-04-27T11:30:43;101959.41;;;18.38;100.00
65173;BME280;69059;52.218;5.172;2023-04-27T11:33:13;101963.88;;;18.24;87.49
65173;BME280;69059;52.218;5.172;2023-04-27T11:35:40;101971.00;;;18.31;83.52
65173;BME280;69059;52.218;5.172;2023-04-27T11:38:14;101967.78;;;17.68;92.04
65173;BME280;69059;52.218;5.172;2023-04-27T11:40:43;101959.31;;;19.50;89.73
65173;BME280;69059;52.218;5.172;2023-04-27T11:43:11;101947.06;;;20.57;89.70
65173;BME280;69059;52.218;5.172;2023-04-27T11:45:41;101958.06;;;21.58;75.21
65173;BME280;69059;52.218;5.172;2023-04-27T11:48:13;101950.41;;;21.80;86.41
65173;BME280;69059;52.218;5.172;2023-04-27T11:50:45;101957.63;;;22.21;79.05
65173;BME280;69059;52.218;5.172;2023-04-27T11:53:14;101961.53;;;20.61;62.48
65173;BME280;69059;52.218;5.172;2023-04-27T11:55:50;101960.56;;;20.24;54.75
65173;BME280;69059;52.218;5.172;2023-04-27T11:58:20;101962.66;;;17.25;61.00
65173;BME280;69059;52.218;5.172;2023-04-27T12:00:47;101964.59;;;17.03;86.65
65173;BME280;69059;52.218;5.172;2023-04-27T12:03:16;101952.28;;;20.07;89.64
65173;BME280;69059;52.218;5.172;2023-04-27T12:05:48;101946.66;;;20.53;79.16
65173;BME280;69059;52.218;5.172;2023-04-27T12:08:16;101962.28;;;18.89;80.19
65173;BME280;69059;52.218;5.172;2023-04-27T12:10:44;101954.88;;;19.82;83.83
65173;BME280;69059;52.218;5.172;2023-04-27T12:13:12;101950.59;;;21.67;81.88
65173;BME280;69059;52.218;5.172;2023-04-27T12:15:41;101944.88;;;22.11;69.93
65173;BME280;69059;52.218;5.172;2023-04-27T12:18:09;101944.88;;;22.76;73.20
65173;BME280;69059;52.218;5.172;2023-04-27T12:20:38;101945.75;;;22.59;68.03
65173;BME280;69059;52.218;5.172;2023-04-27T12:23:06;101941.72;;;23.14;65.62
65173;BME280;69059;52.218;5.172;2023-04-27T12:25:34;101940.53;;;23.62;52.49
65173;BME280;69059;52.218;5.172;2023-04-27T12:28:02;101929.59;;;24.37;59.31
65173;BME280;69059;52.218;5.172;2023-04-27T12:30:29;101926.06;;;23.86;54.98
65173;BME280;69059;52.218;5.172;2023-04-27T12:32:57;101926.00;;;23.98;52.01
65173;BME280;69059;52.218;5.172;2023-04-27T12:35:26;101910.19;;;24.25;58.32
65173;BME280;69059;52.218;5.172;2023-04-27T12:37:58;101925.84;;;24.21;46.76
65173;BME280;69059;52.218;5.172;2023-04-27T12:40:26;101932.75;;;22.15;73.85
65173;BME280;69059;52.218;5.172;2023-04-27T12:42:54;101920.06;;;21.03;61.48
65173;BME280;69059;52.218;5.172;2023-04-27T12:45:24;101911.91;;;21.23;73.96
65173;BME280;69059;52.218;5.172;2023-04-27T12:47:52;101921.97;;;21.80;64.69
65173;BME280;69059;52.218;5.172;2023-04-27T12:50:29;101926.06;;;23.46;53.31
65173;BME280;69059;52.218;5.172;2023-04-27T12:52:59;101916.91;;;24.27;55.63
65173;BME280;69059;52.218;5.172;2023-04-27T12:55:27;101919.06;;;25.24;45.90